createdAt,value
2018-08-30T00:01:35.093Z,99785.77
2018-08-30T00:04:03.781Z,99798.28
2018-08-30T00:06:32.709Z,99802.87
2018-08-30T00:09:02.156Z,99804.33
2018-08-30T00:11:30.941Z,99812.30
2018-08-30T00:13:59.502Z,99813.78
2018-08-30T00:16:28.150Z,99817.53
2018-08-30T00:18:56.650Z,99817.11
2018-08-30T00:21:25.218Z,99823.45
2018-08-30T00:23:53.745Z,99832.75
2018-08-30T00:26:22.314Z,99829.22
2018-08-30T00:28:50.922Z,99382.83
2018-08-30T00:31:19.519Z,99840.39
2018-08-30T00:33:48.031Z,99841.45
2018-08-30T00:36:16.559Z,99850.98
2018-08-30T00:38:45.189Z,99851.10
2018-08-30T00:41:13.719Z,99855.09
2018-08-30T00:43:42.359Z,99863.59
2018-08-30T00:46:11.026Z,99869.12
2018-08-30T00:48:39.592Z,99876.36
2018-08-30T00:51:08.215Z,99883.23
2018-08-30T00:53:36.775Z,99890.55
2018-08-30T00:56:05.347Z,99886.63
2018-08-30T00:58:34.050Z,99891.63
2018-08-30T01:01:02.653Z,99913.07
2018-08-30T01:03:31.267Z,99900.39
2018-08-30T01:05:59.941Z,99900.50
2018-08-30T01:08:28.497Z,99907.28
2018-08-30T01:10:57.075Z,99911.31
2018-08-30T01:13:25.668Z,99920.21
2018-08-30T01:15:54.221Z,99924.53
2018-08-30T01:18:22.753Z,99926.80
2018-08-30T01:20:51.303Z,99927.33
2018-08-30T01:23:19.930Z,99928.72
2018-08-30T01:25:48.641Z,99935.75
2018-08-30T01:28:17.223Z,99933.88
2018-08-30T01:30:45.803Z,99943.66
2018-08-30T01:33:14.479Z,99941.94
2018-08-30T01:35:43.054Z,99939.28
2018-08-30T01:38:11.700Z,99948.17
2018-08-30T01:40:40.303Z,99940.61
2018-08-30T01:43:09.093Z,99896.10
2018-08-30T01:45:37.866Z,99951.14
2018-08-30T01:48:06.512Z,99950.74
2018-08-30T01:50:35.004Z,99949.95
2018-08-30T01:53:03.560Z,99951.81
2018-08-30T01:55:32.146Z,99948.67
2018-08-30T01:58:00.705Z,99950.94
2018-08-30T02:00:29.312Z,99950.00
2018-08-30T02:02:57.989Z,99954.38
2018-08-30T02:05:26.634Z,99948.67
2018-08-30T02:07:55.403Z,99945.97
2018-08-30T02:10:23.885Z,99954.87
2018-08-30T02:12:52.439Z,99954.87
2018-08-30T02:15:20.946Z,99953.59
2018-08-30T02:17:49.496Z,99952.75
2018-08-30T02:20:18.164Z,99954.07
2018-08-30T02:22:46.889Z,99962.63
2018-08-30T02:25:15.373Z,99963.02
2018-08-30T02:27:44.057Z,99964.34
2018-08-30T02:30:12.598Z,99965.28
2018-08-30T02:32:41.307Z,99965.81
2018-08-30T02:35:09.870Z,99970.77
2018-08-30T02:37:38.475Z,99975.69
2018-08-30T02:40:07.024Z,99969.10
2018-08-30T02:42:35.533Z,99973.09
2018-08-30T02:45:04.126Z,99975.73
2018-08-30T02:47:32.672Z,99977.86
2018-08-30T02:50:01.248Z,99979.58
2018-08-30T02:52:29.805Z,99984.39
2018-08-30T02:54:58.374Z,99991.83
2018-08-30T02:57:26.965Z,99987.45
2018-08-30T02:59:55.594Z,99985.72
2018-08-30T03:02:24.179Z,99990.20
2018-08-30T03:04:52.819Z,99989.06
2018-08-30T03:07:21.389Z,99993.04
2018-08-30T03:09:49.934Z,99990.47
2018-08-30T03:12:18.611Z,99989.67
2018-08-30T03:14:57.068Z,99990.58
2018-08-30T03:17:25.694Z,100000.80
2018-08-30T03:19:54.477Z,100012.34
2018-08-30T03:22:23.268Z,100007.91
2018-08-30T03:24:52.020Z,100004.86
2018-08-30T03:27:20.608Z,100003.05
2018-08-30T03:29:49.316Z,100008.44
2018-08-30T03:32:18.034Z,100010.16
2018-08-30T03:34:46.657Z,100013.22
2018-08-30T03:37:15.322Z,100014.46
2018-08-30T03:39:45.224Z,100021.05
2018-08-30T03:42:13.871Z,100021.05
2018-08-30T03:44:42.437Z,100020.70
2018-08-30T03:47:11.243Z,100026.09
2018-08-30T03:49:40.628Z,100027.91
2018-08-30T03:52:09.666Z,100028.52
2018-08-30T03:54:38.335Z,100021.06
2018-08-30T03:57:06.992Z,100023.71
2018-08-30T03:59:35.575Z,100027.69
2018-08-30T04:02:04.869Z,100027.20
2018-08-30T04:04:33.559Z,100023.22
2018-08-30T04:07:02.199Z,100031.58
2018-08-30T04:09:30.844Z,100036.80
2018-08-30T04:11:59.519Z,100030.65
2018-08-30T04:14:28.144Z,100028.79
2018-08-30T04:16:56.851Z,100031.05
2018-08-30T04:19:25.658Z,100024.36
2018-08-30T04:21:54.349Z,100030.06
2018-08-30T04:24:23.081Z,100033.56
2018-08-30T04:26:51.760Z,100039.75
2018-08-30T04:29:20.420Z,100038.43
2018-08-30T04:31:49.363Z,100039.27
2018-08-30T04:34:18.096Z,100037.95
2018-08-30T04:36:46.754Z,100042.86
2018-08-30T04:39:15.375Z,100042.01
2018-08-30T04:41:43.970Z,100049.05
2018-08-30T04:44:12.600Z,100044.13
2018-08-30T04:46:41.385Z,100049.31
2018-08-30T04:49:10.053Z,100054.17
2018-08-30T04:51:38.987Z,100057.41
2018-08-30T04:54:08.629Z,100060.98
2018-08-30T04:56:37.424Z,100063.64
2018-08-30T04:59:06.167Z,100062.84
2018-08-30T05:01:34.867Z,100073.51
2018-08-30T05:04:03.742Z,100073.51
2018-08-30T05:06:32.832Z,100073.55
2018-08-30T05:09:01.840Z,100082.80
2018-08-30T05:11:30.601Z,100082.39
2018-08-30T05:13:59.810Z,100087.58
2018-08-30T05:16:29.578Z,100085.89
2018-08-30T05:18:58.474Z,100090.76
2018-08-30T05:21:27.433Z,100094.20
2018-08-30T05:23:56.356Z,100095.89
2018-08-30T05:26:25.375Z,100095.41
2018-08-30T05:28:57.190Z,100098.98
2018-08-30T05:31:25.894Z,100098.41
2018-08-30T05:33:54.644Z,100099.73
2018-08-30T05:36:23.405Z,100100.22
2018-08-30T05:38:52.220Z,100102.80
2018-08-30T05:41:20.940Z,100109.78
2018-08-30T05:43:49.951Z,100108.93
2018-08-30T05:46:18.763Z,100112.96
2018-08-30T05:48:47.647Z,100111.59
2018-08-30T05:51:16.505Z,100117.21
2018-08-30T05:53:45.191Z,100117.61
2018-08-30T05:56:13.988Z,100121.20
2018-08-30T05:58:42.510Z,100117.16
2018-08-30T06:01:11.222Z,100123.27
2018-08-30T06:03:40.149Z,100129.06
2018-08-30T06:06:09.064Z,100133.45
2018-08-30T06:08:37.567Z,100137.83
2018-08-30T06:11:06.278Z,100138.36
2018-08-30T06:13:35.189Z,100139.28
2018-08-30T06:16:11.629Z,100139.20
2018-08-30T06:18:40.503Z,100137.42
2018-08-30T06:21:09.412Z,100141.15
2018-08-30T06:23:38.195Z,100143.58
2018-08-30T06:26:19.257Z,100141.63
2018-08-30T06:28:48.301Z,100145.30
2018-08-30T06:31:17.505Z,100148.80
2018-08-30T06:33:46.134Z,100147.42
2018-08-30T06:36:15.037Z,100155.34
2018-08-30T06:38:43.634Z,100156.93
2018-08-30T06:41:12.357Z,100165.20
2018-08-30T06:43:40.922Z,100164.27
2018-08-30T06:46:09.641Z,100170.36
2018-08-30T06:48:41.872Z,100169.34
2018-08-30T06:51:18.714Z,100176.20
2018-08-30T06:53:47.862Z,100179.16
2018-08-30T06:56:23.997Z,100178.18
2018-08-30T06:58:54.258Z,100175.92
2018-08-30T07:44:33.333Z,100221.79
2018-08-30T07:47:02.436Z,100225.79
2018-08-30T07:49:30.975Z,100230.11
2018-08-30T07:51:59.466Z,100233.05
2018-08-30T07:54:28.078Z,100234.30
2018-08-30T07:56:56.592Z,100240.95
2018-08-30T07:59:25.044Z,100242.39
2018-08-30T08:01:53.607Z,100237.51
2018-08-30T08:04:22.115Z,100250.02
2018-08-30T08:06:50.658Z,100246.87
2018-08-30T08:09:19.154Z,100246.09
2018-08-30T08:11:47.764Z,100248.88
2018-08-30T08:14:16.451Z,100251.95
2018-08-30T08:16:45.277Z,100247.83
2018-08-30T08:19:13.947Z,100250.41
2018-08-30T08:21:42.614Z,100256.41
2018-08-30T08:24:11.256Z,100256.00
2018-08-30T08:26:40.028Z,100260.85
2018-08-30T08:29:08.567Z,100260.63
2018-08-30T08:31:37.139Z,100264.48
2018-08-30T08:34:05.679Z,100254.59
2018-08-30T08:36:34.357Z,100261.93
2018-08-30T08:39:03.250Z,100257.20
2018-08-30T08:41:31.844Z,100283.00
2018-08-30T08:44:00.315Z,100267.97
2018-08-30T08:46:28.865Z,100269.88
2018-08-30T08:48:57.340Z,100273.56
2018-08-30T08:51:25.972Z,100274.03
2018-08-30T08:53:54.581Z,100279.91
2018-08-30T08:56:23.441Z,100279.51
2018-08-30T08:58:52.550Z,100284.02
2018-08-30T09:01:21.993Z,100284.92
2018-08-30T09:03:50.766Z,100288.61
2018-08-30T09:06:19.302Z,100290.64
2018-08-30T09:08:47.872Z,100291.73
2018-08-30T09:11:16.433Z,100279.95
2018-08-30T09:13:45.141Z,100291.28
2018-08-30T09:16:13.725Z,100284.38
2018-08-30T09:18:42.348Z,100281.41
2018-08-30T09:21:11.047Z,100287.41
2018-08-30T09:23:39.626Z,100285.89
2018-08-30T09:26:08.248Z,100283.60
2018-08-30T09:28:36.851Z,100285.11
2018-08-30T09:31:05.488Z,100290.56
2018-08-30T09:33:34.854Z,100285.05
2018-08-30T09:36:03.504Z,100288.78
2018-08-30T09:38:32.196Z,100287.43
2018-08-30T09:41:00.822Z,100291.41
2018-08-30T09:43:29.360Z,100291.50
2018-08-30T09:45:57.967Z,100294.22
2018-08-30T09:48:26.518Z,100289.81
2018-08-30T09:50:57.004Z,100293.48
2018-08-30T09:53:25.590Z,100293.58
2018-08-30T09:55:54.224Z,100292.70
2018-08-30T09:58:22.812Z,100294.00
2018-08-30T10:00:56.391Z,100295.30
2018-08-30T10:03:24.959Z,100299.16
2018-08-30T10:05:53.492Z,100287.91
2018-08-30T10:08:22.113Z,100295.81
2018-08-30T10:10:50.628Z,100295.02
2018-08-30T10:13:19.220Z,100299.27
2018-08-30T10:15:47.980Z,100298.23
2018-08-30T10:18:16.657Z,100298.95
2018-08-30T10:20:45.165Z,99930.80
2018-08-30T10:23:13.626Z,100296.89
2018-08-30T10:25:42.175Z,100295.42
2018-08-30T10:28:10.734Z,100301.45
2018-08-30T10:30:39.345Z,100303.06
2018-08-30T10:33:07.938Z,100307.93
2018-08-30T10:35:36.460Z,100307.92
2018-08-30T10:38:05.101Z,100302.27
2018-08-30T10:40:33.629Z,100301.39
2018-08-30T10:43:02.298Z,100307.69
2018-08-30T10:45:30.717Z,100309.97
2018-08-30T10:47:59.168Z,100300.30
2018-08-30T10:50:27.604Z,100299.06
2018-08-30T10:52:56.074Z,100301.78
2018-08-30T10:55:24.583Z,100305.81
2018-08-30T10:57:53.349Z,100299.77
2018-08-30T11:00:21.802Z,100306.31
2018-08-30T11:02:50.301Z,100304.14
2018-08-30T11:05:18.924Z,100304.69
2018-08-30T11:07:48.030Z,100304.17
2018-08-30T11:10:16.533Z,100302.70
2018-08-30T11:12:45.068Z,100299.80
2018-08-30T11:15:13.629Z,100301.80
2018-08-30T11:17:42.188Z,100308.30
2018-08-30T11:20:10.603Z,100307.48
2018-08-30T11:22:39.092Z,100304.45
2018-08-30T11:25:07.583Z,100299.70
2018-08-30T11:27:36.095Z,100303.66
2018-08-30T11:30:04.693Z,100300.90
2018-08-30T11:32:33.192Z,100303.47
2018-08-30T11:35:01.644Z,100305.67
2018-08-30T11:37:30.137Z,100299.93
2018-08-30T11:39:58.620Z,100309.95
2018-08-30T11:42:27.124Z,100314.28
2018-08-30T11:44:55.672Z,100311.13
2018-08-30T11:47:24.210Z,100312.84
2018-08-30T11:49:53.436Z,100311.77
2018-08-30T11:52:21.957Z,100319.56
2018-08-30T11:54:50.494Z,100317.34
2018-08-30T11:57:19.304Z,100317.60
2018-08-30T11:59:47.940Z,100319.60
2018-08-30T12:02:16.488Z,100325.69
2018-08-30T12:04:44.953Z,100322.70
2018-08-30T12:07:13.473Z,100323.63
2018-08-30T12:09:42.007Z,100318.23
2018-08-30T12:12:10.468Z,100319.57
2018-08-30T12:14:38.996Z,100324.14
2018-08-30T12:17:07.527Z,100325.17
2018-08-30T12:19:36.182Z,100332.81
2018-08-30T12:22:04.648Z,100329.48
2018-08-30T12:24:33.175Z,100333.02
2018-08-30T12:27:01.795Z,100340.82
2018-08-30T12:29:30.335Z,100331.16
2018-08-30T12:31:58.878Z,100330.30
2018-08-30T12:34:27.533Z,100331.89
2018-08-30T12:36:56.041Z,100332.88
2018-08-30T12:39:24.541Z,100332.47
2018-08-30T12:41:53.218Z,100337.51
2018-08-30T12:44:22.087Z,100335.80
2018-08-30T12:46:50.560Z,100327.70
2018-08-30T12:49:19.143Z,100328.32
2018-08-30T12:51:47.832Z,100338.50
2018-08-30T12:54:16.387Z,100335.44
2018-08-30T12:56:44.905Z,100340.56
2018-08-30T12:59:15.469Z,100339.27
2018-08-30T13:01:44.072Z,100341.31
2018-08-30T13:04:12.770Z,100336.45
2018-08-30T13:06:46.445Z,100334.27
2018-08-30T13:09:16.480Z,100334.03
2018-08-30T13:11:45.155Z,100332.34
2018-08-30T13:14:13.587Z,100339.16
2018-08-30T13:16:42.511Z,100347.72
2018-08-30T13:19:11.238Z,100342.04
2018-08-30T13:21:39.757Z,100349.93
2018-08-30T13:24:08.406Z,100348.30
2018-08-30T13:26:36.843Z,100353.13
2018-08-30T13:29:05.403Z,100352.63
2018-08-30T13:31:34.182Z,100347.70
2018-08-30T13:34:03.267Z,100348.50
2018-08-30T13:36:31.606Z,100343.88
2018-08-30T13:39:00.309Z,100166.44
2018-08-30T13:41:29.136Z,100343.46
2018-08-30T13:43:57.857Z,100347.83
2018-08-30T13:46:26.439Z,100351.36
2018-08-30T13:48:55.212Z,100352.00
2018-08-30T13:51:23.629Z,100351.28
2018-08-30T14:06:04.252Z,100344.70
2018-08-30T14:08:32.862Z,100343.26
2018-08-30T14:11:01.615Z,100344.13
2018-08-30T14:13:31.175Z,100344.23
2018-08-30T14:16:00.135Z,100345.84
2018-08-30T14:18:28.740Z,100343.73
2018-08-30T14:20:57.227Z,100351.16
2018-08-30T14:23:25.864Z,100347.35
2018-08-30T14:25:54.550Z,100337.73
2018-08-30T14:28:23.028Z,100347.04
2018-08-30T14:30:51.650Z,100342.35
2018-08-30T14:33:20.451Z,100339.73
2018-08-30T14:35:48.928Z,100348.59
2018-08-30T14:38:17.467Z,100349.91
2018-08-30T14:40:46.177Z,100355.00
2018-08-30T14:43:14.499Z,100326.64
2018-08-30T14:45:43.027Z,100354.66
2018-08-30T14:48:11.533Z,100360.94
2018-08-30T14:50:40.012Z,100362.70
2018-08-30T14:53:08.706Z,100358.72
2018-08-30T14:55:36.976Z,100357.56
2018-08-30T14:58:05.577Z,100357.69
2018-08-30T15:00:34.104Z,100349.04
2018-08-30T15:03:02.660Z,100346.14
2018-08-30T15:05:31.431Z,100345.48
2018-08-30T15:07:59.771Z,100353.66
2018-08-30T15:10:28.281Z,100348.09
2018-08-30T15:12:56.864Z,100354.64
2018-08-30T15:15:25.387Z,100354.73
2018-08-30T15:17:53.900Z,100352.34
2018-08-30T15:20:22.509Z,100355.63
2018-08-30T15:22:50.982Z,100347.09
2018-08-30T15:25:19.624Z,100349.32
2018-08-30T15:27:48.243Z,100349.33
2018-08-30T15:30:16.812Z,100356.91
2018-08-30T15:32:45.319Z,100357.78
2018-08-30T15:35:13.981Z,100358.54
2018-08-30T15:37:42.489Z,100357.20
2018-08-30T15:40:11.234Z,100359.13
2018-08-30T15:42:40.249Z,100355.22
2018-08-30T15:45:08.788Z,100358.07
2018-08-30T15:47:37.354Z,100356.46
2018-08-30T15:50:06.060Z,100358.80
2018-08-30T15:52:34.619Z,100352.67
2018-08-30T15:55:03.092Z,100360.13
2018-08-30T15:57:31.751Z,100361.34
2018-08-30T16:00:00.299Z,100357.58
2018-08-30T16:02:28.858Z,100361.88
2018-08-30T16:04:57.466Z,100358.52
2018-08-30T16:07:26.092Z,100358.22
2018-08-30T16:09:54.546Z,100361.89
2018-08-30T16:12:23.151Z,100364.72
2018-08-30T16:14:51.917Z,100354.22
2018-08-30T16:17:21.275Z,100352.37
2018-08-30T16:19:49.769Z,100352.83
2018-08-30T16:22:18.281Z,100346.47
2018-08-30T16:24:46.975Z,100341.91
2018-08-30T16:27:15.569Z,100343.32
2018-08-30T16:32:34.860Z,100350.27
2018-08-30T16:35:04.272Z,100343.94
2018-08-30T16:37:39.247Z,100345.53
2018-08-30T16:40:07.989Z,100343.30
2018-08-30T16:42:36.502Z,100344.00
2018-08-30T16:45:04.995Z,100347.56
2018-08-30T16:47:33.532Z,100351.89
2018-08-30T16:50:02.206Z,100355.31
2018-08-30T16:52:30.926Z,100350.28
2018-08-30T16:54:59.618Z,100351.96
2018-08-30T16:57:28.207Z,100351.36
2018-08-30T16:59:56.732Z,100349.98
2018-08-30T17:02:25.388Z,100349.84
2018-08-30T17:04:53.922Z,100353.20
2018-08-30T17:07:22.598Z,100352.50
2018-08-30T17:09:51.152Z,100352.44
2018-08-30T17:12:19.793Z,100363.05
2018-08-30T17:14:48.378Z,100357.70
2018-08-30T17:17:17.074Z,100357.28
2018-08-30T17:19:45.606Z,100353.59
2018-08-30T17:22:14.229Z,100347.70
2018-08-30T17:24:42.908Z,100356.03
2018-08-30T17:27:11.491Z,100356.66
2018-08-30T17:29:40.238Z,100354.72
2018-08-30T17:32:09.240Z,100354.46
2018-08-30T17:34:37.845Z,100351.08
2018-08-30T17:37:06.506Z,100350.47
2018-08-30T17:39:34.894Z,100351.88
2018-08-30T17:42:04.706Z,100353.77
2018-08-30T17:44:33.220Z,100352.60
2018-08-30T17:47:01.911Z,100357.39
2018-08-30T17:49:30.764Z,100354.96
2018-08-30T17:51:59.378Z,100319.33
2018-08-30T17:54:27.965Z,100359.27
2018-08-30T17:56:56.477Z,100364.77
2018-08-30T17:59:25.201Z,100364.09
2018-08-30T18:01:53.637Z,100363.38
2018-08-30T18:04:22.168Z,100367.05
2018-08-30T18:06:50.975Z,100362.87
2018-08-30T18:09:19.474Z,100371.66
2018-08-30T18:11:48.552Z,100369.38
2018-08-30T18:14:17.051Z,100367.06
2018-08-30T18:16:45.561Z,100373.17
2018-08-30T18:19:14.291Z,100375.27
2018-08-30T18:21:42.894Z,100372.19
2018-08-30T18:24:11.554Z,100376.53
2018-08-30T18:26:40.159Z,100385.31
2018-08-30T18:29:08.731Z,100387.89
2018-08-30T18:31:37.408Z,100389.50
2018-08-30T18:34:06.202Z,100258.25
2018-08-30T18:36:34.776Z,100394.13
2018-08-30T18:39:03.363Z,100396.99
2018-08-30T18:41:31.928Z,100394.20
2018-08-30T18:44:00.445Z,100399.42
2018-08-30T18:46:30.087Z,100402.73
2018-08-30T18:48:58.589Z,100403.34
2018-08-30T18:51:27.038Z,100408.33
2018-08-30T18:53:55.589Z,100412.47
2018-08-30T18:56:24.182Z,100411.28
2018-08-30T18:58:52.699Z,100418.88
2018-08-30T19:01:21.211Z,100416.01
2018-08-30T19:03:49.799Z,100418.38
2018-08-30T19:06:18.329Z,100422.33
2018-08-30T19:08:46.909Z,100418.89
2018-08-30T19:11:15.376Z,100428.27
2018-08-30T19:13:44.052Z,100422.20
2018-08-30T19:16:17.789Z,100426.87
2018-08-30T19:18:51.555Z,100422.72
2018-08-30T19:21:20.022Z,100433.22
2018-08-30T19:23:48.596Z,100431.28
2018-08-30T19:26:17.176Z,100433.78
2018-08-30T19:28:45.693Z,100428.38
2018-08-30T19:31:14.260Z,100432.69
2018-08-30T19:33:42.764Z,100436.91
2018-08-30T19:36:16.505Z,100437.54
2018-08-30T19:38:45.147Z,100436.56
2018-08-30T19:41:18.732Z,100436.31
2018-08-30T19:43:48.083Z,100439.63
2018-08-30T19:46:16.655Z,100441.19
2018-08-30T19:48:45.131Z,100445.83
2018-08-30T19:51:13.583Z,100442.94
2018-08-30T19:53:42.485Z,100437.39
2018-08-30T19:56:11.990Z,100441.08
2018-08-30T19:58:40.613Z,100440.89
2018-08-30T20:01:09.180Z,100444.72
2018-08-30T20:03:37.660Z,100441.39
2018-08-30T20:06:06.604Z,100443.81
2018-08-30T20:08:35.144Z,100439.59
2018-08-30T20:11:03.991Z,100440.23
2018-08-30T20:13:32.607Z,100443.05
2018-08-30T20:16:00.998Z,100441.49
2018-08-30T20:18:29.472Z,100449.63
2018-08-30T20:20:57.972Z,100446.24
2018-08-30T20:23:26.460Z,100451.27
2018-08-30T20:25:54.953Z,100446.87
2018-08-30T20:28:24.161Z,100451.42
2018-08-30T20:30:52.619Z,100451.14
2018-08-30T20:33:21.105Z,100453.47
2018-08-30T20:35:49.635Z,100452.25
2018-08-30T20:38:18.168Z,100450.20
2018-08-30T20:40:46.677Z,100449.50
2018-08-30T20:43:15.195Z,100450.47
2018-08-30T20:45:43.687Z,100455.48
2018-08-30T20:48:12.860Z,100448.11
2018-08-30T20:50:41.356Z,100452.25
2018-08-30T20:53:09.789Z,100451.98
2018-08-30T20:55:38.344Z,100452.98
2018-08-30T20:58:07.027Z,100459.73
2018-08-30T21:00:35.598Z,100453.72
2018-08-30T21:03:04.386Z,100450.73
2018-08-30T21:05:33.053Z,100454.31
2018-08-30T21:08:01.616Z,100447.37
2018-08-30T21:10:30.308Z,100448.34
2018-08-30T21:12:58.865Z,100451.61
2018-08-30T21:15:27.479Z,100452.16
2018-08-30T21:17:55.965Z,100450.05
2018-08-30T21:20:24.503Z,100444.78
2018-08-30T21:22:52.980Z,100452.80
2018-08-30T21:25:21.511Z,100445.84
2018-08-30T21:27:50.083Z,100443.67
2018-08-30T21:30:18.607Z,100451.25
2018-08-30T21:32:47.147Z,100443.33
2018-08-30T21:35:15.732Z,100448.26
2018-08-30T21:37:44.204Z,100450.50
2018-08-30T21:40:13.849Z,100449.69
2018-08-30T21:42:42.466Z,100452.38
2018-08-30T21:45:10.983Z,100449.79
2018-08-30T21:47:39.516Z,100444.52
2018-08-30T21:50:08.056Z,100446.39
2018-08-30T21:52:36.511Z,100449.14
2018-08-30T21:55:05.027Z,100454.95
2018-08-30T21:57:33.604Z,100451.05
2018-08-30T22:00:02.083Z,100457.77
2018-08-30T22:02:30.606Z,100452.61
2018-08-30T22:04:59.076Z,100459.33
2018-08-30T22:07:27.495Z,100461.64
2018-08-30T22:09:56.089Z,100458.67
2018-08-30T22:12:24.577Z,100459.66
2018-08-30T22:14:53.083Z,100461.95
2018-08-30T22:17:21.581Z,100457.61
2018-08-30T22:19:50.041Z,100467.89
2018-08-30T22:22:18.511Z,100470.53
2018-08-30T22:24:47.025Z,100475.39
2018-08-30T22:27:15.452Z,100465.23
2018-08-30T22:29:44.083Z,100471.36
2018-08-30T22:32:12.570Z,100469.97
2018-08-30T22:34:41.202Z,100470.86
2018-08-30T22:37:09.678Z,100472.69
2018-08-30T22:39:38.300Z,100472.72
2018-08-30T22:42:06.850Z,100463.53
2018-08-30T22:44:35.439Z,100465.36
2018-08-30T22:47:03.887Z,100463.22
2018-08-30T22:49:32.404Z,100468.93
2018-08-30T22:52:00.884Z,100464.48
2018-08-30T22:54:29.408Z,100462.72
2018-08-30T22:56:57.949Z,100459.12
2018-08-30T22:59:26.551Z,100468.80
2018-08-30T23:01:55.117Z,100462.69
2018-08-30T23:04:23.599Z,100468.80
2018-08-30T23:06:52.089Z,100464.36
2018-08-30T23:09:20.536Z,100468.30
2018-08-30T23:11:49.020Z,100463.72
2018-08-30T23:14:17.573Z,100462.81
2018-08-30T23:16:46.021Z,100467.26
2018-08-30T23:19:14.465Z,100469.02
2018-08-30T23:21:43.012Z,100465.17
2018-08-30T23:24:11.459Z,100461.27
2018-08-30T23:26:40.099Z,100458.20
2018-08-30T23:29:08.528Z,100461.30
2018-08-30T23:31:37.109Z,100458.23
2018-08-30T23:34:05.699Z,100460.98
2018-08-30T23:36:34.231Z,100461.02
2018-08-30T23:39:02.760Z,100465.46
2018-08-30T23:41:31.236Z,100457.13
2018-08-30T23:43:59.700Z,100458.48
2018-08-30T23:46:28.124Z,100455.43
2018-08-30T23:48:56.543Z,100456.78
2018-08-30T23:51:25.084Z,100456.38
2018-08-30T23:53:53.578Z,100451.20
2018-08-30T23:56:22.080Z,100459.23
2018-08-30T23:59:01.759Z,100457.13
